sensor_id;sensor_type;location;lat;lon;timestamp;temperature;humidity
22966;DHT22;11649;48.090;9.754;2024-03-22T00:03:28;7.00;99.90
22966;DHT22;11649;48.090;9.754;2024-03-22T00:05:55;6.90;99.90
22966;DHT22;11649;48.090;9.754;2024-03-22T00:08:21;7.00;99.90
22966;DHT22;11649;48.090;9.754;2024-03-22T00:10:46;7.00;99.90
22966;DHT22;11649;48.090;9.754;2024-03-22T00:13:12;7.00;99.90
22966;DHT22;11649;48.090;9.754;2024-03-22T00:15:38;7.00;99.90
22966;DHT22;11649;48.090;9.754;2024-03-22T00:18:04;7.00;99.90
22966;DHT22;11649;48.090;9.754;2024-03-22T00:20:33;7.10;99.90
22966;DHT22;11649;48.090;9.754;2024-03-22T00:23:00;7.00;99.90
22966;DHT22;11649;48.090;9.754;2024-03-22T00:25:26;7.00;99.90
22966;DHT22;11649;48.090;9.754;2024-03-22T00:27:52;7.10;99.90
22966;DHT22;11649;48.090;9.754;2024-03-22T00:30:18;7.00;99.90
22966;DHT22;11649;48.090;9.754;2024-03-22T00:32:44;7.00;99.90
22966;DHT22;11649;48.090;9.754;2024-03-22T00:35:10;6.90;99.90
22966;DHT22;11649;48.090;9.754;2024-03-22T00:37:36;6.90;99.90
22966;DHT22;11649;48.090;9.754;2024-03-22T00:40:02;6.80;99.90
22966;DHT22;11649;48.090;9.754;2024-03-22T00:42:28;6.70;99.90
22966;DHT22;11649;48.090;9.754;2024-03-22T00:44:54;6.50;99.90
22966;DHT22;11649;48.090;9.754;2024-03-22T00:47:20;6.30;99.90
22966;DHT22;11649;48.090;9.754;2024-03-22T00:49:46;6.40;99.90
22966;DHT22;11649;48.090;9.754;2024-03-22T00:52:12;6.60;99.90
22966;DHT22;11649;48.090;9.754;2024-03-22T00:54:38;6.70;99.90
22966;DHT22;11649;48.090;9.754;2024-03-22T00:57:31;6.60;99.90
22966;DHT22;11649;48.090;9.754;2024-03-22T01:00:06;8.50;99.90
22966;DHT22;11649;48.090;9.754;2024-03-22T01:05:57;6.30;99.90
22966;DHT22;11649;48.090;9.754;2024-03-22T01:08:32;6.10;99.90
22966;DHT22;11649;48.090;9.754;2024-03-22T01:11:12;6.00;99.90
22966;DHT22;11649;48.090;9.754;2024-03-22T01:13:39;6.00;99.90
22966;DHT22;11649;48.090;9.754;2024-03-22T01:16:24;6.00;99.90
22966;DHT22;11649;48.090;9.754;2024-03-22T01:19:12;7.40;99.90
22966;DHT22;11649;48.090;9.754;2024-03-22T01:21:44;5.90;99.90
22966;DHT22;11649;48.090;9.754;2024-03-22T01:24:59;5.90;99.90
22966;DHT22;11649;48.090;9.754;2024-03-22T01:28:12;5.80;99.90
22966;DHT22;11649;48.090;9.754;2024-03-22T01:33:25;6.00;99.90
22966;DHT22;11649;48.090;9.754;2024-03-22T01:36:03;5.70;99.90
22966;DHT22;11649;48.090;9.754;2024-03-22T01:38:49;5.90;99.90
22966;DHT22;11649;48.090;9.754;2024-03-22T01:41:18;7.30;99.90
22966;DHT22;11649;48.090;9.754;2024-03-22T01:44:02;5.90;99.90
22966;DHT22;11649;48.090;9.754;2024-03-22T01:46:30;5.90;99.90
22966;DHT22;11649;48.090;9.754;2024-03-22T01:49:02;5.50;99.90
22966;DHT22;11649;48.090;9.754;2024-03-22T01:51:37;5.90;99.90
22966;DHT22;11649;48.090;9.754;2024-03-22T01:54:30;5.70;99.90
22966;DHT22;11649;48.090;9.754;2024-03-22T01:57:31;5.40;99.90
22966;DHT22;11649;48.090;9.754;2024-03-22T02:00:12;5.60;99.90
22966;DHT22;11649;48.090;9.754;2024-03-22T02:02:56;5.50;99.90
22966;DHT22;11649;48.090;9.754;2024-03-22T02:05:28;5.50;99.90
22966;DHT22;11649;48.090;9.754;2024-03-22T02:08:00;5.60;99.90
22966;DHT22;11649;48.090;9.754;2024-03-22T02:10:26;5.40;99.90
22966;DHT22;11649;48.090;9.754;2024-03-22T02:15:43;5.50;99.90
22966;DHT22;11649;48.090;9.754;2024-03-22T02:18:28;5.50;99.90
22966;DHT22;11649;48.090;9.754;2024-03-22T02:21:00;7.30;99.90
22966;DHT22;11649;48.090;9.754;2024-03-22T02:23:41;5.50;99.90
22966;DHT22;11649;48.090;9.754;2024-03-22T02:26:37;5.40;99.90
22966;DHT22;11649;48.090;9.754;2024-03-22T02:29:12;5.70;99.90
22966;DHT22;11649;48.090;9.754;2024-03-22T02:31:41;5.60;99.90
22966;DHT22;11649;48.090;9.754;2024-03-22T02:34:06;5.70;99.90
22966;DHT22;11649;48.090;9.754;2024-03-22T02:36:32;5.70;99.90
22966;DHT22;11649;48.090;9.754;2024-03-22T02:38:58;5.60;99.90
22966;DHT22;11649;48.090;9.754;2024-03-22T02:41:24;5.50;99.90
22966;DHT22;11649;48.090;9.754;2024-03-22T02:43:50;5.40;99.90
22966;DHT22;11649;48.090;9.754;2024-03-22T02:46:15;5.20;99.90
22966;DHT22;11649;48.090;9.754;2024-03-22T02:48:41;5.10;99.90
22966;DHT22;11649;48.090;9.754;2024-03-22T02:51:07;5.10;99.90
22966;DHT22;11649;48.090;9.754;2024-03-22T02:53:34;5.10;99.90
22966;DHT22;11649;48.090;9.754;2024-03-22T02:56:00;5.10;99.90
22966;DHT22;11649;48.090;9.754;2024-03-22T02:58:26;5.10;99.90
22966;DHT22;11649;48.090;9.754;2024-03-22T03:00:52;5.10;99.90
22966;DHT22;11649;48.090;9.754;2024-03-22T03:03:18;5.10;99.90
22966;DHT22;11649;48.090;9.754;2024-03-22T03:05:44;5.20;99.90
22966;DHT22;11649;48.090;9.754;2024-03-22T03:08:10;5.20;99.90
22966;DHT22;11649;48.090;9.754;2024-03-22T03:10:36;5.20;99.90
22966;DHT22;11649;48.090;9.754;2024-03-22T03:13:02;5.10;99.90
22966;DHT22;11649;48.090;9.754;2024-03-22T03:15:28;5.10;99.90
22966;DHT22;11649;48.090;9.754;2024-03-22T03:17:54;5.00;99.90
22966;DHT22;11649;48.090;9.754;2024-03-22T03:20:20;4.90;99.90
22966;DHT22;11649;48.090;9.754;2024-03-22T03:22:46;4.90;99.90
22966;DHT22;11649;48.090;9.754;2024-03-22T03:25:23;4.90;99.90
22966;DHT22;11649;48.090;9.754;2024-03-22T03:28:11;5.00;99.90
22966;DHT22;11649;48.090;9.754;2024-03-22T03:30:39;4.60;99.90
22966;DHT22;11649;48.090;9.754;2024-03-22T03:33:08;4.90;99.90
22966;DHT22;11649;48.090;9.754;2024-03-22T03:35:52;5.40;99.90
22966;DHT22;11649;48.090;9.754;2024-03-22T03:41:24;4.90;99.90
22966;DHT22;11649;48.090;9.754;2024-03-22T03:43:49;4.70;99.90
22966;DHT22;11649;48.090;9.754;2024-03-22T03:46:24;5.20;99.90
22966;DHT22;11649;48.090;9.754;2024-03-22T03:49:15;4.80;99.90
22966;DHT22;11649;48.090;9.754;2024-03-22T03:51:50;5.10;99.90
22966;DHT22;11649;48.090;9.754;2024-03-22T03:54:31;5.30;99.90
22966;DHT22;11649;48.090;9.754;2024-03-22T03:57:06;4.60;99.90
22966;DHT22;11649;48.090;9.754;2024-03-22T03:59:51;4.70;99.90
22966;DHT22;11649;48.090;9.754;2024-03-22T04:02:20;5.70;99.90
22966;DHT22;11649;48.090;9.754;2024-03-22T04:04:47;5.90;99.90
22966;DHT22;11649;48.090;9.754;2024-03-22T04:07:22;4.80;99.90
22966;DHT22;11649;48.090;9.754;2024-03-22T04:09:50;4.80;99.90
22966;DHT22;11649;48.090;9.754;2024-03-22T04:12:52;6.50;99.90
22966;DHT22;11649;48.090;9.754;2024-03-22T04:15:23;4.90;99.90
22966;DHT22;11649;48.090;9.754;2024-03-22T04:17:56;4.80;99.90
22966;DHT22;11649;48.090;9.754;2024-03-22T04:20:59;4.90;99.90
22966;DHT22;11649;48.090;9.754;2024-03-22T04:23:28;5.00;99.90
22966;DHT22;11649;48.090;9.754;2024-03-22T04:26:00;6.30;99.90
22966;DHT22;11649;48.090;9.754;2024-03-22T04:28:36;4.00;99.90
22966;DHT22;11649;48.090;9.754;2024-03-22T04:31:32;4.70;99.90
22966;DHT22;11649;48.090;9.754;2024-03-22T04:33:58;4.90;99.90
22966;DHT22;11649;48.090;9.754;2024-03-22T04:36:23;4.70;99.90
22966;DHT22;11649;48.090;9.754;2024-03-22T04:38:58;4.80;99.90
22966;DHT22;11649;48.090;9.754;2024-03-22T04:41:24;4.80;99.90
22966;DHT22;11649;48.090;9.754;2024-03-22T04:43:59;5.20;99.90
22966;DHT22;11649;48.090;9.754;2024-03-22T04:46:24;4.60;99.90
22966;DHT22;11649;48.090;9.754;2024-03-22T04:48:56;4.80;99.90
22966;DHT22;11649;48.090;9.754;2024-03-22T04:51:25;4.70;99.90
22966;DHT22;11649;48.090;9.754;2024-03-22T04:53:51;4.60;99.90
22966;DHT22;11649;48.090;9.754;2024-03-22T04:56:17;4.60;99.90
22966;DHT22;11649;48.090;9.754;2024-03-22T04:58:43;4.10;99.90
22966;DHT22;11649;48.090;9.754;2024-03-22T05:01:08;4.80;99.90
22966;DHT22;11649;48.090;9.754;2024-03-22T05:03:34;4.80;99.90
22966;DHT22;11649;48.090;9.754;2024-03-22T05:06:00;4.70;99.90
22966;DHT22;11649;48.090;9.754;2024-03-22T05:08:29;5.80;99.90
22966;DHT22;11649;48.090;9.754;2024-03-22T05:10:55;7.20;99.90
22966;DHT22;11649;48.090;9.754;2024-03-22T05:13:23;5.10;99.90
22966;DHT22;11649;48.090;9.754;2024-03-22T05:15:57;6.10;99.90
22966;DHT22;11649;48.090;9.754;2024-03-22T05:18:28;5.40;99.90
22966;DHT22;11649;48.090;9.754;2024-03-22T05:20:57;4.90;99.90
22966;DHT22;11649;48.090;9.754;2024-03-22T05:23:23;5.10;99.90
22966;DHT22;11649;48.090;9.754;2024-03-22T05:25:52;5.20;99.90
22966;DHT22;11649;48.090;9.754;2024-03-22T05:28:20;5.30;99.90
22966;DHT22;11649;48.090;9.754;2024-03-22T05:30:49;6.30;99.90
22966;DHT22;11649;48.090;9.754;2024-03-22T05:33:32;5.30;99.90
22966;DHT22;11649;48.090;9.754;2024-03-22T05:36:02;5.10;99.90
22966;DHT22;11649;48.090;9.754;2024-03-22T05:38:28;5.30;99.90
22966;DHT22;11649;48.090;9.754;2024-03-22T05:41:04;5.20;99.90
22966;DHT22;11649;48.090;9.754;2024-03-22T05:43:33;5.40;99.90
22966;DHT22;11649;48.090;9.754;2024-03-22T05:46:02;5.90;99.90
22966;DHT22;11649;48.090;9.754;2024-03-22T05:48:30;5.60;99.90
22966;DHT22;11649;48.090;9.754;2024-03-22T05:50:56;5.50;99.90
22966;DHT22;11649;48.090;9.754;2024-03-22T05:53:25;5.70;99.90
22966;DHT22;11649;48.090;9.754;2024-03-22T05:55:51;5.80;99.90
22966;DHT22;11649;48.090;9.754;2024-03-22T05:58:17;5.90;99.90
22966;DHT22;11649;48.090;9.754;2024-03-22T06:00:45;5.90;99.90
22966;DHT22;11649;48.090;9.754;2024-03-22T06:03:11;5.70;99.90
22966;DHT22;11649;48.090;9.754;2024-03-22T06:05:43;5.70;99.90
22966;DHT22;11649;48.090;9.754;2024-03-22T06:08:12;5.70;99.90
22966;DHT22;11649;48.090;9.754;2024-03-22T06:10:50;7.50;99.90
22966;DHT22;11649;48.090;9.754;2024-03-22T06:13:25;6.00;99.90
22966;DHT22;11649;48.090;9.754;2024-03-22T06:15:59;7.60;99.90
22966;DHT22;11649;48.090;9.754;2024-03-22T06:18:29;8.10;99.90
22966;DHT22;11649;48.090;9.754;2024-03-22T06:21:01;6.10;99.90
22966;DHT22;11649;48.090;9.754;2024-03-22T06:23:27;6.80;99.90
22966;DHT22;11649;48.090;9.754;2024-03-22T06:25:59;6.10;99.90
22966;DHT22;11649;48.090;9.754;2024-03-22T06:28:43;6.10;99.90
22966;DHT22;11649;48.090;9.754;2024-03-22T06:31:19;6.00;99.90
22966;DHT22;11649;48.090;9.754;2024-03-22T06:33:51;6.50;99.90
22966;DHT22;11649;48.090;9.754;2024-03-22T06:36:18;8.60;99.90
22966;DHT22;11649;48.090;9.754;2024-03-22T06:38:44;6.60;99.90
22966;DHT22;11649;48.090;9.754;2024-03-22T06:41:30;7.00;99.90
22966;DHT22;11649;48.090;9.754;2024-03-22T06:44:08;7.00;99.90
22966;DHT22;11649;48.090;9.754;2024-03-22T06:46:56;9.20;99.90
22966;DHT22;11649;48.090;9.754;2024-03-22T06:49:31;7.20;99.90
22966;DHT22;11649;48.090;9.754;2024-03-22T06:55:56;7.50;99.90
22966;DHT22;11649;48.090;9.754;2024-03-22T06:58:44;9.40;99.90
22966;DHT22;11649;48.090;9.754;2024-03-22T07:04:49;8.20;99.90
22966;DHT22;11649;48.090;9.754;2024-03-22T07:07:43;8.30;99.90
22966;DHT22;11649;48.090;9.754;2024-03-22T07:10:28;8.60;99.90
22966;DHT22;11649;48.090;9.754;2024-03-22T07:16:15;9.20;99.90
22966;DHT22;11649;48.090;9.754;2024-03-22T07:19:07;11.30;99.90
22966;DHT22;11649;48.090;9.754;2024-03-22T07:21:33;9.30;99.90
22966;DHT22;11649;48.090;9.754;2024-03-22T07:24:00;9.60;99.90
22966;DHT22;11649;48.090;9.754;2024-03-22T07:26:41;11.10;99.90
22966;DHT22;11649;48.090;9.754;2024-03-22T07:29:13;9.60;99.90
22966;DHT22;11649;48.090;9.754;2024-03-22T07:31:38;9.80;99.90
22966;DHT22;11649;48.090;9.754;2024-03-22T07:34:16;10.00;99.90
22966;DHT22;11649;48.090;9.754;2024-03-22T07:40:28;10.00;99.90
22966;DHT22;11649;48.090;9.754;2024-03-22T07:42:54;10.10;99.90
22966;DHT22;11649;48.090;9.754;2024-03-22T07:48:15;10.20;99.90
22966;DHT22;11649;48.090;9.754;2024-03-22T07:50:57;9.80;99.90
22966;DHT22;11649;48.090;9.754;2024-03-22T07:53:48;10.30;99.90
22966;DHT22;11649;48.090;9.754;2024-03-22T07:56:16;12.20;99.90
22966;DHT22;11649;48.090;9.754;2024-03-22T07:59:01;10.60;99.90
22966;DHT22;11649;48.090;9.754;2024-03-22T08:02:05;11.60;99.90
22966;DHT22;11649;48.090;9.754;2024-03-22T08:04:45;10.70;99.90
22966;DHT22;11649;48.090;9.754;2024-03-22T08:07:51;9.40;99.90
22966;DHT22;11649;48.090;9.754;2024-03-22T08:10:34;10.10;99.90
22966;DHT22;11649;48.090;9.754;2024-03-22T08:13:00;10.30;99.90
22966;DHT22;11649;48.090;9.754;2024-03-22T08:15:59;10.90;99.90
22966;DHT22;11649;48.090;9.754;2024-03-22T08:19:12;10.40;99.90
22966;DHT22;11649;48.090;9.754;2024-03-22T08:21:46;10.50;99.90
22966;DHT22;11649;48.090;9.754;2024-03-22T08:24:12;10.80;99.90
22966;DHT22;11649;48.090;9.754;2024-03-22T08:26:46;10.80;99.90
22966;DHT22;11649;48.090;9.754;2024-03-22T08:29:19;11.00;99.90
22966;DHT22;11649;48.090;9.754;2024-03-22T08:31:46;11.10;99.90
22966;DHT22;11649;48.090;9.754;2024-03-22T08:34:11;12.20;99.90
22966;DHT22;11649;48.090;9.754;2024-03-22T08:36:40;11.30;99.90
22966;DHT22;11649;48.090;9.754;2024-03-22T08:39:12;11.30;99.90
22966;DHT22;11649;48.090;9.754;2024-03-22T08:41:47;12.80;99.90
22966;DHT22;11649;48.090;9.754;2024-03-22T08:44:16;11.50;99.90
22966;DHT22;11649;48.090;9.754;2024-03-22T08:46:45;11.50;99.90
22966;DHT22;11649;48.090;9.754;2024-03-22T08:49:14;11.80;99.90
22966;DHT22;11649;48.090;9.754;2024-03-22T08:51:40;12.00;99.90
22966;DHT22;11649;48.090;9.754;2024-03-22T08:54:13;14.30;99.90
22966;DHT22;11649;48.090;9.754;2024-03-22T08:56:41;12.30;99.90
22966;DHT22;11649;48.090;9.754;2024-03-22T08:59:07;12.50;99.90
22966;DHT22;11649;48.090;9.754;2024-03-22T09:01:33;12.80;99.90
22966;DHT22;11649;48.090;9.754;2024-03-22T09:04:17;12.90;99.90
22966;DHT22;11649;48.090;9.754;2024-03-22T09:07:01;13.30;99.90
22966;DHT22;11649;48.090;9.754;2024-03-22T09:09:54;12.90;99.90
22966;DHT22;11649;48.090;9.754;2024-03-22T09:12:29;13.10;99.90
22966;DHT22;11649;48.090;9.754;2024-03-22T09:15:23;14.20;99.90
22966;DHT22;11649;48.090;9.754;2024-03-22T09:18:09;13.20;99.90
22966;DHT22;11649;48.090;9.754;2024-03-22T09:20:43;12.50;99.90
22966;DHT22;11649;48.090;9.754;2024-03-22T09:23:10;13.80;99.90
22966;DHT22;11649;48.090;9.754;2024-03-22T09:25:51;14.10;99.90
22966;DHT22;11649;48.090;9.754;2024-03-22T09:28:35;14.10;99.90
22966;DHT22;11649;48.090;9.754;2024-03-22T09:31:30;15.00;99.90
22966;DHT22;11649;48.090;9.754;2024-03-22T09:37:59;14.90;99.30
22966;DHT22;11649;48.090;9.754;2024-03-22T09:42:01;15.20;96.00
22966;DHT22;11649;48.090;9.754;2024-03-22T09:44:13;15.80;96.70
22966;DHT22;11649;48.090;9.754;2024-03-22T09:46:43;16.30;93.00
22966;DHT22;11649;48.090;9.754;2024-03-22T09:49:10;17.50;91.70
22966;DHT22;11649;48.090;9.754;2024-03-22T09:51:43;16.70;93.10
22966;DHT22;11649;48.090;9.754;2024-03-22T09:54:10;16.50;91.10
22966;DHT22;11649;48.090;9.754;2024-03-22T09:56:38;16.70;88.70
22966;DHT22;11649;48.090;9.754;2024-03-22T09:59:05;16.90;86.30
22966;DHT22;11649;48.090;9.754;2024-03-22T10:01:31;16.80;83.40
22966;DHT22;11649;48.090;9.754;2024-03-22T10:03:57;16.70;84.90
22966;DHT22;11649;48.090;9.754;2024-03-22T10:06:23;16.80;84.60
22966;DHT22;11649;48.090;9.754;2024-03-22T10:08:49;16.60;86.10
22966;DHT22;11649;48.090;9.754;2024-03-22T10:11:15;16.40;90.50
22966;DHT22;11649;48.090;9.754;2024-03-22T10:13:40;16.20;88.60
22966;DHT22;11649;48.090;9.754;2024-03-22T10:16:06;16.40;90.10
22966;DHT22;11649;48.090;9.754;2024-03-22T10:18:33;16.60;81.60
22966;DHT22;11649;48.090;9.754;2024-03-22T10:21:03;16.60;81.30
22966;DHT22;11649;48.090;9.754;2024-03-22T10:23:30;16.40;85.30
22966;DHT22;11649;48.090;9.754;2024-03-22T10:25:59;16.20;87.20
22966;DHT22;11649;48.090;9.754;2024-03-22T10:28:26;16.10;88.70
22966;DHT22;11649;48.090;9.754;2024-03-22T10:30:52;16.00;82.90
22966;DHT22;11649;48.090;9.754;2024-03-22T10:33:19;16.60;87.00
22966;DHT22;11649;48.090;9.754;2024-03-22T10:35:46;16.80;81.10
22966;DHT22;11649;48.090;9.754;2024-03-22T10:38:13;17.10;80.10
22966;DHT22;11649;48.090;9.754;2024-03-22T10:40:44;16.80;78.80
22966;DHT22;11649;48.090;9.754;2024-03-22T10:43:10;16.50;77.70
22966;DHT22;11649;48.090;9.754;2024-03-22T10:45:37;16.70;81.00
22966;DHT22;11649;48.090;9.754;2024-03-22T10:48:10;16.80;77.60
22966;DHT22;11649;48.090;9.754;2024-03-22T10:50:41;16.80;75.00
22966;DHT22;11649;48.090;9.754;2024-03-22T10:53:20;17.00;79.50
22966;DHT22;11649;48.090;9.754;2024-03-22T10:55:51;17.20;75.20
22966;DHT22;11649;48.090;9.754;2024-03-22T10:58:21;17.40;73.50
22966;DHT22;11649;48.090;9.754;2024-03-22T11:00:47;17.60;69.10
22966;DHT22;11649;48.090;9.754;2024-03-22T11:03:13;18.20;71.50
22966;DHT22;11649;48.090;9.754;2024-03-22T11:05:50;18.20;65.30
22966;DHT22;11649;48.090;9.754;2024-03-22T11:08:25;18.40;58.70
22966;DHT22;11649;48.090;9.754;2024-03-22T11:10:52;18.60;62.50
22966;DHT22;11649;48.090;9.754;2024-03-22T11:13:20;18.70;62.70
22966;DHT22;11649;48.090;9.754;2024-03-22T11:15:50;18.70;59.10
22966;DHT22;11649;48.090;9.754;2024-03-22T11:18:17;18.00;60.30
22966;DHT22;11649;48.090;9.754;2024-03-22T11:20:43;17.80;60.10
22966;DHT22;11649;48.090;9.754;2024-03-22T11:23:10;17.80;57.40
22966;DHT22;11649;48.090;9.754;2024-03-22T11:25:36;18.00;59.10
22966;DHT22;11649;48.090;9.754;2024-03-22T11:28:02;18.60;56.00
22966;DHT22;11649;48.090;9.754;2024-03-22T11:30:29;18.00;54.50
22966;DHT22;11649;48.090;9.754;2024-03-22T11:32:55;17.90;53.90
22966;DHT22;11649;48.090;9.754;2024-03-22T11:35:22;17.90;57.40
22966;DHT22;11649;48.090;9.754;2024-03-22T11:37:50;17.90;58.10
22966;DHT22;11649;48.090;9.754;2024-03-22T11:40:16;18.20;57.30
22966;DHT22;11649;48.090;9.754;2024-03-22T11:42:46;17.70;58.30
22966;DHT22;11649;48.090;9.754;2024-03-22T11:45:15;18.30;56.30
22966;DHT22;11649;48.090;9.754;2024-03-22T11:47:41;17.80;54.80
22966;DHT22;11649;48.090;9.754;2024-03-22T11:50:07;17.60;58.50
22966;DHT22;11649;48.090;9.754;2024-03-22T11:52:35;17.40;58.20
22966;DHT22;11649;48.090;9.754;2024-03-22T11:55:01;17.60;59.20
22966;DHT22;11649;48.090;9.754;2024-03-22T11:57:28;17.30;59.50
22966;DHT22;11649;48.090;9.754;2024-03-22T11:59:59;17.50;58.90
22966;DHT22;11649;48.090;9.754;2024-03-22T12:02:25;17.60;58.80
22966;DHT22;11649;48.090;9.754;2024-03-22T12:04:51;17.60;58.40
22966;DHT22;11649;48.090;9.754;2024-03-22T12:07:18;17.70;56.40
22966;DHT22;11649;48.090;9.754;2024-03-22T12:09:44;17.90;53.10
22966;DHT22;11649;48.090;9.754;2024-03-22T12:12:11;18.10;54.80
22966;DHT22;11649;48.090;9.754;2024-03-22T12:14:38;18.10;54.50
22966;DHT22;11649;48.090;9.754;2024-03-22T12:17:07;18.70;51.20
22966;DHT22;11649;48.090;9.754;2024-03-22T12:19:33;18.60;49.40
22966;DHT22;11649;48.090;9.754;2024-03-22T12:22:00;18.70;48.30
22966;DHT22;11649;48.090;9.754;2024-03-22T12:24:26;19.10;46.40
22966;DHT22;11649;48.090;9.754;2024-03-22T12:26:55;19.00;47.10
22966;DHT22;11649;48.090;9.754;2024-03-22T12:29:21;18.80;46.50
22966;DHT22;11649;48.090;9.754;2024-03-22T12:31:47;18.50;45.10
22966;DHT22;11649;48.090;9.754;2024-03-22T12:34:13;18.50;48.20
22966;DHT22;11649;48.090;9.754;2024-03-22T12:36:40;18.60;48.30
22966;DHT22;11649;48.090;9.754;2024-03-22T12:39:06;18.70;45.80
22966;DHT22;11649;48.090;9.754;2024-03-22T12:41:32;18.90;48.10
22966;DHT22;11649;48.090;9.754;2024-03-22T12:43:59;19.10;45.10
22966;DHT22;11649;48.090;9.754;2024-03-22T12:46:25;18.90;45.10
22966;DHT22;11649;48.090;9.754;2024-03-22T12:48:52;18.60;46.90
22966;DHT22;11649;48.090;9.754;2024-03-22T12:51:17;18.70;46.20
22966;DHT22;11649;48.090;9.754;2024-03-22T12:53:43;18.90;49.90
22966;DHT22;11649;48.090;9.754;2024-03-22T12:56:10;18.80;46.90
22966;DHT22;11649;48.090;9.754;2024-03-22T12:58:37;19.00;45.20
22966;DHT22;11649;48.090;9.754;2024-03-22T13:01:05;18.90;46.50
22966;DHT22;11649;48.090;9.754;2024-03-22T13:03:32;19.00;46.20
22966;DHT22;11649;48.090;9.754;2024-03-22T13:05:58;19.30;43.70
22966;DHT22;11649;48.090;9.754;2024-03-22T13:08:24;19.50;43.90
22966;DHT22;11649;48.090;9.754;2024-03-22T13:10:50;19.30;43.40
22966;DHT22;11649;48.090;9.754;2024-03-22T13:13:18;19.40;43.50
22966;DHT22;11649;48.090;9.754;2024-03-22T13:15:44;19.70;41.80
22966;DHT22;11649;48.090;9.754;2024-03-22T13:18:10;19.50;42.00
22966;DHT22;11649;48.090;9.754;2024-03-22T13:20:36;19.60;45.40
22966;DHT22;11649;48.090;9.754;2024-03-22T13:23:04;19.90;44.40
22966;DHT22;11649;48.090;9.754;2024-03-22T13:25:30;20.00;42.80
22966;DHT22;11649;48.090;9.754;2024-03-22T13:28:05;20.20;42.30
22966;DHT22;11649;48.090;9.754;2024-03-22T13:30:34;20.40;39.80
22966;DHT22;11649;48.090;9.754;2024-03-22T13:33:01;20.30;41.10
22966;DHT22;11649;48.090;9.754;2024-03-22T13:35:27;20.50;41.70
22966;DHT22;11649;48.090;9.754;2024-03-22T13:37:52;20.50;41.60
22966;DHT22;11649;48.090;9.754;2024-03-22T13:40:21;20.50;45.10
22966;DHT22;11649;48.090;9.754;2024-03-22T13:42:55;20.70;41.00
22966;DHT22;11649;48.090;9.754;2024-03-22T13:45:21;20.30;40.30
22966;DHT22;11649;48.090;9.754;2024-03-22T13:47:47;21.40;42.30
22966;DHT22;11649;48.090;9.754;2024-03-22T13:50:16;20.80;42.00
22966;DHT22;11649;48.090;9.754;2024-03-22T13:52:45;20.30;42.40
22966;DHT22;11649;48.090;9.754;2024-03-22T13:55:21;19.90;41.20
22966;DHT22;11649;48.090;9.754;2024-03-22T13:57:47;20.00;43.80
22966;DHT22;11649;48.090;9.754;2024-03-22T14:00:13;20.60;46.20
22966;DHT22;11649;48.090;9.754;2024-03-22T14:02:40;20.60;42.70
22966;DHT22;11649;48.090;9.754;2024-03-22T14:05:09;20.40;44.40
22966;DHT22;11649;48.090;9.754;2024-03-22T14:07:38;20.20;40.50
22966;DHT22;11649;48.090;9.754;2024-03-22T14:10:06;20.90;40.60
22966;DHT22;11649;48.090;9.754;2024-03-22T14:12:52;21.20;39.40
22966;DHT22;11649;48.090;9.754;2024-03-22T14:15:18;20.80;40.80
22966;DHT22;11649;48.090;9.754;2024-03-22T14:17:44;20.50;41.20
22966;DHT22;11649;48.090;9.754;2024-03-22T14:20:15;20.60;40.70
22966;DHT22;11649;48.090;9.754;2024-03-22T14:22:42;20.20;39.60
22966;DHT22;11649;48.090;9.754;2024-03-22T14:25:08;19.80;42.10
22966;DHT22;11649;48.090;9.754;2024-03-22T14:27:35;19.70;42.00
22966;DHT22;11649;48.090;9.754;2024-03-22T14:30:02;19.70;43.80
22966;DHT22;11649;48.090;9.754;2024-03-22T14:32:34;19.20;44.60
22966;DHT22;11649;48.090;9.754;2024-03-22T14:35:00;19.10;44.30
22966;DHT22;11649;48.090;9.754;2024-03-22T14:37:26;18.60;46.50
22966;DHT22;11649;48.090;9.754;2024-03-22T14:39:52;19.00;47.40
22966;DHT22;11649;48.090;9.754;2024-03-22T14:42:35;19.60;46.70
22966;DHT22;11649;48.090;9.754;2024-03-22T14:45:01;19.70;41.10
22966;DHT22;11649;48.090;9.754;2024-03-22T14:47:28;20.00;40.40
22966;DHT22;11649;48.090;9.754;2024-03-22T14:49:54;20.00;41.90
22966;DHT22;11649;48.090;9.754;2024-03-22T14:52:20;19.90;41.40
22966;DHT22;11649;48.090;9.754;2024-03-22T14:54:47;19.80;43.40
22966;DHT22;11649;48.090;9.754;2024-03-22T15:00:23;20.40;41.40
22966;DHT22;11649;48.090;9.754;2024-03-22T15:02:54;20.00;42.50
22966;DHT22;11649;48.090;9.754;2024-03-22T15:05:23;20.10;43.40
22966;DHT22;11649;48.090;9.754;2024-03-22T15:07:50;20.10;42.70
22966;DHT22;11649;48.090;9.754;2024-03-22T15:10:26;20.20;45.00
22966;DHT22;11649;48.090;9.754;2024-03-22T15:13:15;20.10;43.50
22966;DHT22;11649;48.090;9.754;2024-03-22T15:16:17;20.20;43.50
22966;DHT22;11649;48.090;9.754;2024-03-22T15:18:50;19.80;43.50
22966;DHT22;11649;48.090;9.754;2024-03-22T15:21:22;19.90;44.00
22966;DHT22;11649;48.090;9.754;2024-03-22T15:23:48;18.80;46.20
22966;DHT22;11649;48.090;9.754;2024-03-22T15:26:20;19.30;47.80
22966;DHT22;11649;48.090;9.754;2024-03-22T15:29:30;19.30;47.20
22966;DHT22;11649;48.090;9.754;2024-03-22T15:31:59;19.50;46.60
22966;DHT22;11649;48.090;9.754;2024-03-22T15:52:59;18.80;47.50
22966;DHT22;11649;48.090;9.754;2024-03-22T16:33:14;18.80;44.90
22966;DHT22;11649;48.090;9.754;2024-03-22T16:35:40;18.90;45.60
22966;DHT22;11649;48.090;9.754;2024-03-22T16:38:06;18.80;45.70
22966;DHT22;11649;48.090;9.754;2024-03-22T16:40:32;18.40;46.30
22966;DHT22;11649;48.090;9.754;2024-03-22T16:42:57;18.10;47.10
22966;DHT22;11649;48.090;9.754;2024-03-22T16:45:23;17.70;48.50
22966;DHT22;11649;48.090;9.754;2024-03-22T16:47:52;17.60;49.10
22966;DHT22;11649;48.090;9.754;2024-03-22T16:50:18;17.40;50.00
22966;DHT22;11649;48.090;9.754;2024-03-22T16:52:44;17.20;50.10
22966;DHT22;11649;48.090;9.754;2024-03-22T16:55:10;17.10;50.90
22966;DHT22;11649;48.090;9.754;2024-03-22T16:57:39;17.00;51.60
22966;DHT22;11649;48.090;9.754;2024-03-22T17:00:08;16.90;51.90
22966;DHT22;11649;48.090;9.754;2024-03-22T17:02:35;16.90;52.10
22966;DHT22;11649;48.090;9.754;2024-03-22T17:05:01;16.80;52.40
22966;DHT22;11649;48.090;9.754;2024-03-22T17:07:26;16.70;53.20
22966;DHT22;11649;48.090;9.754;2024-03-22T17:09:54;16.70;54.20
22966;DHT22;11649;48.090;9.754;2024-03-22T17:12:20;16.60;53.80
22966;DHT22;11649;48.090;9.754;2024-03-22T17:14:45;16.50;53.20
22966;DHT22;11649;48.090;9.754;2024-03-22T17:17:11;16.50;53.20
22966;DHT22;11649;48.090;9.754;2024-03-22T17:19:38;16.50;52.50
22966;DHT22;11649;48.090;9.754;2024-03-22T17:22:05;16.50;52.40
22966;DHT22;11649;48.090;9.754;2024-03-22T17:24:31;16.40;52.10
22966;DHT22;11649;48.090;9.754;2024-03-22T17:26:57;16.30;52.80
22966;DHT22;11649;48.090;9.754;2024-03-22T17:29:24;16.10;53.50
22966;DHT22;11649;48.090;9.754;2024-03-22T17:31:50;16.00;54.90
22966;DHT22;11649;48.090;9.754;2024-03-22T17:34:15;15.90;53.90
22966;DHT22;11649;48.090;9.754;2024-03-22T17:36:41;15.70;54.80
22966;DHT22;11649;48.090;9.754;2024-03-22T17:39:07;15.70;55.10